Weather at Salt Lake City International Airport

Public forecast

Using degrees Fahrenheit for public forecast. Weather courtesy of forecast.io.

Current aviation weather report (METAR) for Salt Lake City International Airport

Retrieved 2021/11/27 13:54 UTC (30 minutes ago):

KSLC 271354Z 00000KT 10SM FEW060 BKN070 BKN140 M02/M06 A3032 RMK AO2 SLP283 T10221056

Aviation forecast (TAF) for Salt Lake City International Airport

Retrieved 2021/11/27 12:22 UTC (2 hours ago):

TAF KSLC 271120Z 2712/2818 15004KT P6SM FEW060 FEW140 SCT250 FM271800 32005KT P6SM FEW250 FM280200 15003KT P6SM SKC